Date,TemperatureHighF,TemperatureAvgF,TemperatureLowF,DewpointHighF,DewpointAvgF,DewpointLowF,HumidityHigh,HumidityAvg,HumidityLow,PressureMaxIn,PressureMinIn,WindSpeedMaxMPH,WindSpeedAvgMPH,GustSpeedMaxMPH,PrecipitationSumIn
2013-5-1,51.3,36.8,23.0,22.4,15.7,7.7,78,47,22,30.30,29.99,22,7,28,0.00
2013-5-2,64.9,43.4,23.2,23.4,15.4,9.7,68,39,15,30.34,30.04,20,6,30,0.00
2013-5-3,60.4,53.5,43.3,32.6,26.0,18.1,49,37,31,30.00,29.94,15,7,25,0.00
2013-5-4,59.4,53.1,46.6,41.3,36.9,32.8,75,55,43,30.03,29.94,22,12,30,0.00
2013-5-5,71.1,55.5,34.2,40.0,32.7,28.6,87,48,25,29.97,29.75,11,4,16,0.00
2013-5-6,75.2,60.2,36.0,40.4,29.9,17.6,81,39,17,29.82,29.62,8,4,14,0.00
2013-5-7,72.9,60.2,39.2,36.7,32.7,24.7,66,39,26,29.81,29.66,24,11,37,0.02
2013-5-8,74.3,58.7,49.6,39.2,34.4,31.6,52,43,26,29.91,29.81,21,12,29,0.00
2013-5-9,75.6,65.0,47.7,42.3,36.5,31.3,69,39,25,29.94,29.83,31,6,43,0.28
2013-5-10,69.4,55.1,41.0,41.0,35.5,32.3,78,51,31,30.12,29.91,34,13,48,5.56
2013-5-11,78.3,63.5,42.1,43.8,35.7,27.5,78,39,25,30.08,29.87,19,7,28,0.00
2013-5-12,84.6,73.5,49.1,46.1,40.9,36.7,70,36,22,29.92,29.71,16,5,24,0.00
2013-5-13,86.2,63.8,53.8,49.6,43.5,26.4,73,50,16,29.82,29.50,36,12,51,9.48
2013-5-14,74.1,61.0,47.8,42.9,29.2,16.8,63,36,16,29.81,29.63,31,17,44,0.98
2013-5-15,71.1,61.2,48.7,33.5,26.6,21.3,43,30,23,29.84,29.64,23,10,37,0.06
2013-5-16,64.2,56.3,46.4,51.7,43.1,31.9,100,64,39,29.70,29.61,18,7,27,0.12
2013-5-17,57.7,51.4,42.6,50.6,46.6,42.4,100,85,63,29.73,29.64,17,7,25,0.13
2013-5-18,65.3,55.2,48.7,54.0,46.5,39.9,100,76,47,29.78,29.69,23,9,34,0.04
2013-5-19,57.4,52.8,49.8,47.8,43.4,37.1,88,71,57,29.92,29.76,28,16,35,0.01
2013-5-20,53.2,51.6,50.2,48.6,46.9,44.7,93,84,74,29.96,29.91,19,14,28,0.00
2013-5-22,62.6,56.5,50.4,51.8,43.7,37.6,94,64,48,29.64,29.54,40,20,55,0.07
2013-5-23,55.4,45.0,42.3,50.4,43.2,39.5,100,93,83,29.69,29.60,21,14,33,0.12
2013-5-25,69.8,56.8,41.4,43.1,38.6,33.5,81,53,32,29.78,29.67,18,7,27,0.00
2013-5-26,71.4,56.5,43.5,47.2,42.6,35.7,93,62,32,29.78,29.63,25,8,38,0.37
2013-5-27,66.6,52.4,42.3,51.3,45.6,41.4,100,81,44,29.74,29.57,19,5,37,0.39
2013-5-28,63.7,53.7,49.6,51.4,47.3,42.6,100,80,58,29.59,29.53,16,8,24,0.32
2013-5-29,65.8,54.3,50.9,48.8,46.3,43.4,88,75,51,29.57,29.50,12,5,19,0.00
2013-5-30,61.7,56.6,50.7,37.4,33.6,27.8,61,44,36,29.75,29.57,26,16,37,0.73
2013-5-31,53.1,50.3,48.2,35.4,33.3,30.7,60,53,44,29.85,29.74,17,11,30,0.01